Time;durP1;ratioP1;P1;durP2;ratioP2;P2;SDS_P1;SDS_P2;PMS_P1;PMS_P2;Temp;Humidity;BMP_temperature;BMP_pressure;BME280_temperature;BME280_humidity;BME280_pressure;Samples;Min_cycle;Max_cycle;Signal;HPM_P1;HPM_P2
2022/09/26 00:01:42;;;;;;;6.00;3.08;;;;;;;;;;5049248;28;20053;-74
2022/09/26 00:04:15;;;;;;;8.15;3.30;;;;;;;;;;5055602;28;20045;-75
2022/09/26 00:06:42;;;;;;;;;;;;;;;;;;5046172;28;20057;-74
2022/09/26 00:09:09;;;;;;;3.17;2.20;;;;;;;;;;5045524;28;44603;-73
2022/09/26 00:11:37;;;;;;;4.63;2.78;;;;;;;;;;5051633;28;20538;-74
2022/09/26 00:14:06;;;;;;;5.65;2.70;;;;;;;;;;5049865;28;20499;-73
2022/09/26 00:16:34;;;;;;;4.68;2.60;;;;;;;;;;5052539;28;20083;-73
2022/09/26 00:19:01;;;;;;;7.13;2.67;;;;;;;;;;5045081;28;20092;-73
2022/09/26 00:21:29;;;;;;;7.90;2.90;;;;;;;;;;5052230;28;20046;-73
2022/09/26 00:23:57;;;;;;;8.20;2.50;;;;;;;;;;5052601;28;20052;-75
2022/09/26 00:26:25;;;;;;;6.35;2.42;;;;;;;;;;5050225;28;20061;-75
2022/09/26 00:28:53;;;;;;;8.57;2.20;;;;;;;;;;5049483;28;20053;-75
2022/09/26 00:31:22;;;;;;;4.65;2.65;;;;;;;;;;5053114;28;20056;-74
2022/09/26 00:33:49;;;;;;;5.15;2.58;;;;;;;;;;5042655;28;20076;-75
2022/09/26 00:36:17;;;;;;;5.82;2.42;;;;;;;;;;5047233;28;20053;-75
2022/09/26 00:38:44;;;;;;;5.75;2.22;;;;;;;;;;5059497;28;20056;-75
2022/09/26 00:41:12;;;;;;;4.03;2.17;;;;;;;;;;5051393;28;20132;-74
2022/09/26 00:43:44;;;;;;;10.27;2.60;;;;;;;;;;5058608;28;20136;-76
2022/09/26 00:46:11;;;;;;;10.18;2.55;;;;;;;;;;5050875;28;20107;-74
2022/09/26 00:48:39;;;;;;;4.50;1.70;;;;;;;;;;5048609;28;20128;-74
2022/09/26 00:51:07;;;;;;;5.90;2.35;;;;;;;;;;5049148;28;20057;-74
2022/09/26 00:53:43;;;;;;;4.60;2.08;;;;;;;;;;5052185;28;20053;-75
2022/09/26 00:56:12;;;;;;;4.63;2.10;;;;;;;;;;5046268;28;20488;-75
2022/09/26 00:58:41;;;;;;;2.63;1.88;;;;;;;;;;5056451;28;20041;-75
2022/09/26 01:01:08;;;;;;;4.28;2.22;;;;;;;;;;5054398;28;20861;-75
2022/09/26 01:03:37;;;;;;;10.18;1.85;;;;;;;;;;5046476;28;20056;-76
2022/09/26 01:06:05;;;;;;;10.23;2.15;;;;;;;;;;5050628;28;20928;-75
2022/09/26 01:08:35;;;;;;;5.93;2.17;;;;;;;;;;5053285;28;20045;-74
2022/09/26 01:11:03;;;;;;;5.18;2.15;;;;;;;;;;5046530;28;20053;-75
2022/09/26 01:13:33;;;;;;;3.83;1.80;;;;;;;;;;5087538;28;20100;-75
2022/09/26 01:16:00;;;;;;;2.90;1.83;;;;;;;;;;5048170;28;20057;-75
2022/09/26 01:18:28;;;;;;;3.53;2.10;;;;;;;;;;5044065;28;20090;-74
2022/09/26 01:21:13;;;;;;;3.67;1.90;;;;;;;;;;5040564;28;20050;-75
2022/09/26 01:23:46;;;;;;;7.95;2.50;;;;;;;;;;5040243;28;20104;-76
2022/09/26 01:26:32;;;;;;;11.45;2.22;;;;;;;;;;5046544;28;20049;-75
2022/09/26 01:29:02;;;;;;;7.80;2.38;;;;;;;;;;5041620;28;20052;-75
2022/09/26 01:31:32;;;;;;;5.65;1.77;;;;;;;;;;5050763;28;20045;-76
2022/09/26 01:34:17;;;;;;;4.75;2.20;;;;;;;;;;5050728;28;20050;-75
2022/09/26 01:36:47;;;;;;;5.13;2.55;;;;;;;;;;5051516;28;20106;-74
2022/09/26 01:39:14;;;;;;;3.97;2.10;;;;;;;;;;5055383;28;20100;-73
2022/09/26 01:41:53;;;;;;;5.80;2.50;;;;;;;;;;5046805;28;20073;-74
2022/09/26 01:44:32;;;;;;;4.78;2.53;;;;;;;;;;5050474;28;20053;-74
2022/09/26 01:46:59;;;;;;;4.22;2.22;;;;;;;;;;5049403;28;21045;-74
2022/09/26 01:49:52;;;;;;;3.92;1.92;;;;;;;;;;5050278;28;20109;-74
2022/09/26 01:52:19;;;;;;;6.00;1.80;;;;;;;;;;5053531;28;20549;-73
2022/09/26 01:55:10;;;;;;;4.82;2.00;;;;;;;;;;5052768;28;20068;-73
2022/09/26 01:57:47;;;;;;;3.53;2.15;;;;;;;;;;5044100;28;20056;-74
2022/09/26 02:00:14;;;;;;;3.72;2.08;;;;;;;;;;5047748;28;20049;-73
2022/09/26 02:02:43;;;;;;;5.93;2.45;;;;;;;;;;5061418;28;20053;-74
2022/09/26 02:05:15;;;;;;;7.35;2.70;;;;;;;;;;5048765;28;20056;-75
2022/09/26 02:07:45;;;;;;;4.20;2.10;;;;;;;;;;5043801;28;20057;-74
2022/09/26 02:10:20;;;;;;;3.03;2.20;;;;;;;;;;5039303;28;20050;-74
2022/09/26 02:12:49;;;;;;;3.63;2.33;;;;;;;;;;5043263;28;20081;-74
2022/09/26 02:15:17;;;;;;;6.85;3.00;;;;;;;;;;5050713;28;20062;-73
2022/09/26 02:17:47;;;;;;;8.40;2.70;;;;;;;;;;5052060;28;20103;-73
2022/09/26 02:20:16;;;;;;;6.35;2.83;;;;;;;;;;5053373;28;20053;-75
2022/09/26 02:22:43;;;;;;;7.35;2.60;;;;;;;;;;5048040;28;20104;-74
2022/09/26 02:25:10;;;;;;;11.00;3.28;;;;;;;;;;5057545;28;20049;-74
2022/09/26 02:27:38;;;;;;;7.10;2.65;;;;;;;;;;5053492;28;20060;-74
2022/09/26 02:30:06;;;;;;;6.25;2.60;;;;;;;;;;5054315;28;20046;-75
2022/09/26 02:32:33;;;;;;;6.90;2.50;;;;;;;;;;5049752;28;20424;-75
2022/09/26 02:35:52;;;;;;;10.05;3.03;;;;;;;;;;5052034;28;21020;-74
2022/09/26 02:37:48;;;;;;;6.28;2.97;;;;;;;;;;5049311;28;20053;-74
2022/09/26 02:40:18;;;;;;;5.32;3.10;;;;;;;;;;5053652;28;20057;-75
2022/09/26 02:43:05;;;;;;;5.25;3.28;;;;;;;;;;5048196;28;20085;-74
2022/09/26 02:45:41;;;;;;;8.23;3.03;;;;;;;;;;5027281;28;20499;-76
2022/09/26 02:48:20;;;;;;;8.50;3.15;;;;;;;;;;5052959;28;20050;-74
2022/09/26 02:50:59;;;;;;;7.38;3.45;;;;;;;;;;5053824;28;20057;-75
2022/09/26 02:53:35;;;;;;;7.05;2.78;;;;;;;;;;5041404;28;20084;-74
2022/09/26 02:56:22;;;;;;;7.00;3.20;;;;;;;;;;5040627;28;20851;-76
2022/09/26 02:58:49;;;;;;;6.32;3.55;;;;;;;;;;5052329;28;20138;-75
2022/09/26 03:01:38;;;;;;;8.38;3.80;;;;;;;;;;5049431;28;20053;-74
2022/09/26 03:04:07;;;;;;;5.75;3.05;;;;;;;;;;5043818;28;20056;-74
2022/09/26 03:06:39;;;;;;;8.95;2.95;;;;;;;;;;5051490;28;20046;-74
2022/09/26 03:09:07;;;;;;;8.55;3.55;;;;;;;;;;5049770;28;20132;-74
2022/09/26 03:11:35;;;;;;;8.85;3.22;;;;;;;;;;5049416;28;20049;-75
2022/09/26 03:14:03;;;;;;;6.20;3.50;;;;;;;;;;5050113;28;20112;-75
2022/09/26 03:16:34;;;;;;;5.78;3.20;;;;;;;;;;5047451;28;20115;-74
2022/09/26 03:19:10;;;;;;;8.70;3.47;;;;;;;;;;5048201;28;20931;-75
2022/09/26 03:21:37;;;;;;;8.55;3.83;;;;;;;;;;5053442;28;20049;-75
2022/09/26 03:24:04;;;;;;;11.10;3.35;;;;;;;;;;5046548;28;20100;-75
2022/09/26 03:26:32;;;;;;;7.78;3.58;;;;;;;;;;5052000;28;20045;-75
2022/09/26 03:28:59;;;;;;;14.30;3.63;;;;;;;;;;5050724;28;20060;-74
2022/09/26 03:31:27;;;;;;;7.15;3.33;;;;;;;;;;5050031;28;20053;-74
2022/09/26 03:33:55;;;;;;;7.15;3.30;;;;;;;;;;5051117;28;20081;-74
2022/09/26 03:36:22;;;;;;;7.28;2.45;;;;;;;;;;5049525;28;20054;-74
2022/09/26 03:38:50;;;;;;;13.40;3.00;;;;;;;;;;5051108;28;20049;-74
2022/09/26 03:41:17;;;;;;;14.80;3.35;;;;;;;;;;5055771;28;20056;-74
2022/09/26 03:43:45;;;;;;;8.73;3.88;;;;;;;;;;5046869;28;20053;-74
2022/09/26 03:46:12;;;;;;;5.18;2.85;;;;;;;;;;5052780;28;20051;-74
2022/09/26 03:48:39;;;;;;;4.95;3.08;;;;;;;;;;5048581;28;20132;-73
2022/09/26 03:51:08;;;;;;;9.07;2.97;;;;;;;;;;5044544;28;20811;-74
2022/09/26 03:53:37;;;;;;;5.40;2.90;;;;;;;;;;5047630;28;20053;-74
2022/09/26 03:56:09;;;;;;;10.70;3.22;;;;;;;;;;5050311;28;20053;-74
2022/09/26 03:58:36;;;;;;;14.77;3.35;;;;;;;;;;5052721;28;20049;-74
2022/09/26 04:01:08;;;;;;;7.50;3.05;;;;;;;;;;5043735;28;20119;-74
2022/09/26 04:03:36;;;;;;;6.05;3.30;;;;;;;;;;5064048;28;20797;-74
2022/09/26 04:06:04;;;;;;;7.18;2.92;;;;;;;;;;5060415;28;20041;-75
2022/09/26 04:08:31;;;;;;;5.72;2.75;;;;;;;;;;5052527;28;20053;-74
2022/09/26 04:11:05;;;;;;;5.93;2.90;;;;;;;;;;5050229;28;20483;-74
2022/09/26 04:13:33;;;;;;;7.22;2.97;;;;;;;;;;5040539;28;20104;-74
2022/09/26 04:16:21;;;;;;;4.63;2.50;;;;;;;;;;5046250;28;20065;-74
2022/09/26 04:18:50;;;;;;;7.47;3.20;;;;;;;;;;5049829;28;20092;-73
2022/09/26 04:21:17;;;;;;;7.85;3.10;;;;;;;;;;5050763;28;20049;-73
2022/09/26 04:23:44;;;;;;;5.32;2.80;;;;;;;;;;5052219;28;20053;-73
2022/09/26 04:26:12;;;;;;;7.78;2.42;;;;;;;;;;5053500;28;20084;-73
2022/09/26 04:28:48;;;;;;;3.67;2.25;;;;;;;;;;5047637;28;20747;-73
2022/09/26 04:31:15;;;;;;;5.47;2.22;;;;;;;;;;5057647;28;20052;-73
2022/09/26 04:33:44;;;;;;;6.50;2.38;;;;;;;;;;5058388;28;20140;-74
2022/09/26 04:36:12;;;;;;;4.57;2.20;;;;;;;;;;5050984;28;20058;-74
2022/09/26 04:38:40;;;;;;;8.00;2.92;;;;;;;;;;5057830;28;20052;-73
2022/09/26 04:41:08;;;;;;;11.27;2.53;;;;;;;;;;5059171;28;20053;-74
2022/09/26 04:43:36;;;;;;;6.95;2.40;;;;;;;;;;5044233;28;20100;-76
2022/09/26 04:46:10;;;;;;;11.13;2.20;;;;;;;;;;5044064;28;20111;-73
2022/09/26 04:48:37;;;;;;;10.63;2.55;;;;;;;;;;5052318;28;20049;-73
2022/09/26 04:51:06;;;;;;;6.13;2.25;;;;;;;;;;5052104;28;20061;-74
2022/09/26 04:53:34;;;;;;;5.68;1.75;;;;;;;;;;5054520;28;20057;-75
2022/09/26 04:56:01;;;;;;;5.82;2.00;;;;;;;;;;5052479;28;20053;-74
2022/09/26 04:58:29;;;;;;;4.05;1.98;;;;;;;;;;5049230;28;20107;-75
2022/09/26 05:01:01;;;;;;;6.28;2.13;;;;;;;;;;5042726;28;20129;-74
2022/09/26 05:03:28;;;;;;;6.53;2.40;;;;;;;;;;5044891;28;20053;-73
2022/09/26 05:05:56;;;;;;;10.07;2.72;;;;;;;;;;5055377;28;20056;-74
2022/09/26 05:08:23;;;;;;;5.97;2.03;;;;;;;;;;5050060;28;20049;-73
2022/09/26 05:10:54;;;;;;;4.15;2.28;;;;;;;;;;5043223;28;20053;-74
2022/09/26 05:13:22;;;;;;;7.38;2.08;;;;;;;;;;5042449;28;20077;-74
2022/09/26 05:15:52;;;;;;;3.88;1.92;;;;;;;;;;5044305;28;20050;-74
2022/09/26 05:18:20;;;;;;;4.10;2.20;;;;;;;;;;5046207;28;20092;-74
2022/09/26 05:20:47;;;;;;;3.20;1.85;;;;;;;;;;5042173;28;20049;-75
2022/09/26 05:26:18;;;;;;;5.43;1.98;;;;;;;;;;5047724;28;20049;-74
2022/09/26 05:26:19;;;;;;;3.30;1.65;;;;;;;;;;5045878;28;20065;-75
2022/09/26 05:28:51;;;;;;;7.47;1.92;;;;;;;;;;5051705;28;20053;-74
2022/09/26 05:31:18;;;;;;;3.10;2.00;;;;;;;;;;5055378;28;20104;-76
2022/09/26 05:33:46;;;;;;;5.95;2.13;;;;;;;;;;5044363;28;20054;-74
2022/09/26 05:36:13;;;;;;;5.20;1.55;;;;;;;;;;5054704;28;20144;-75
2022/09/26 05:38:40;;;;;;;6.45;1.95;;;;;;;;;;5045572;28;20108;-75
2022/09/26 05:41:07;;;;;;;2.75;1.80;;;;;;;;;;5046869;28;20768;-74
2022/09/26 05:43:34;;;;;;;4.35;2.03;;;;;;;;;;5058664;28;20132;-75
2022/09/26 05:46:03;;;;;;;6.70;1.77;;;;;;;;;;5046230;28;20104;-74
2022/09/26 05:48:32;;;;;;;2.30;1.90;;;;;;;;;;5050087;28;20909;-74
2022/09/26 05:51:08;;;;;;;5.22;2.20;;;;;;;;;;5055225;28;20050;-74
2022/09/26 05:53:36;;;;;;;5.47;1.90;;;;;;;;;;5053098;28;20096;-75
2022/09/26 05:56:05;;;;;;;8.75;1.98;;;;;;;;;;5051354;28;20404;-74
2022/09/26 05:58:33;;;;;;;3.53;1.80;;;;;;;;;;5051353;28;20054;-75
2022/09/26 06:01:01;;;;;;;2.80;1.88;;;;;;;;;;5052263;28;20050;-74
2022/09/26 06:03:33;;;;;;;4.35;2.13;;;;;;;;;;5050807;28;20050;-75
2022/09/26 06:06:04;;;;;;;3.55;1.80;;;;;;;;;;5050947;28;20064;-74
2022/09/26 06:08:32;;;;;;;4.70;1.85;;;;;;;;;;5053242;28;20053;-74
2022/09/26 06:11:04;;;;;;;4.20;2.00;;;;;;;;;;5051565;28;20136;-75
2022/09/26 06:13:32;;;;;;;9.27;2.00;;;;;;;;;;5046703;28;20877;-75
2022/09/26 06:16:04;;;;;;;4.47;1.85;;;;;;;;;;5045381;28;20050;-75
2022/09/26 06:18:32;;;;;;;6.05;1.67;;;;;;;;;;5040595;28;20053;-74
2022/09/26 06:21:01;;;;;;;6.82;2.20;;;;;;;;;;5050417;28;20054;-74
2022/09/26 06:23:28;;;;;;;7.35;2.05;;;;;;;;;;5042675;28;20096;-74
2022/09/26 06:25:56;;;;;;;2.50;1.90;;;;;;;;;;5054929;28;20046;-74
2022/09/26 06:28:23;;;;;;;8.88;2.15;;;;;;;;;;5051620;28;20054;-74
2022/09/26 06:30:50;;;;;;;6.10;2.30;;;;;;;;;;5056274;28;20049;-75
2022/09/26 06:33:17;;;;;;;4.35;1.60;;;;;;;;;;5048675;28;20140;-74
2022/09/26 06:35:44;;;;;;;8.95;2.45;;;;;;;;;;5047157;28;20133;-74
2022/09/26 06:38:12;;;;;;;6.25;2.33;;;;;;;;;;5050086;28;20893;-73
2022/09/26 06:40:39;;;;;;;5.50;2.03;;;;;;;;;;5048457;28;20535;-75
2022/09/26 06:43:06;;;;;;;4.43;2.42;;;;;;;;;;5050919;28;20057;-74
2022/09/26 06:45:35;;;;;;;4.60;2.22;;;;;;;;;;5042825;28;20104;-74
2022/09/26 06:48:03;;;;;;;2.95;1.60;;;;;;;;;;5079966;28;20053;-74
2022/09/26 06:50:30;;;;;;;3.25;2.08;;;;;;;;;;5054086;28;20578;-73
2022/09/26 06:53:02;;;;;;;4.20;1.73;;;;;;;;;;5054817;28;20045;-74
2022/09/26 06:55:37;;;;;;;3.33;2.03;;;;;;;;;;5052107;28;20053;-74
2022/09/26 06:58:04;;;;;;;4.00;1.63;;;;;;;;;;5053530;28;20053;-73
2022/09/26 07:00:34;;;;;;;5.95;2.30;;;;;;;;;;5050115;28;20112;-74
2022/09/26 07:03:02;;;;;;;7.07;2.17;;;;;;;;;;5055035;28;20052;-74
2022/09/26 07:05:29;;;;;;;3.75;2.10;;;;;;;;;;5055824;28;20045;-74
2022/09/26 07:07:57;;;;;;;5.43;1.83;;;;;;;;;;5049829;28;20128;-74
2022/09/26 07:10:24;;;;;;;4.15;2.05;;;;;;;;;;5059796;28;20503;-75
2022/09/26 07:12:52;;;;;;;2.53;1.52;;;;;;;;;;5060553;28;20050;-74
2022/09/26 07:15:20;;;;;;;6.38;1.98;;;;;;;;;;5057844;28;20080;-74
2022/09/26 07:17:47;;;;;;;5.47;2.55;;;;;;;;;;5055844;28;20053;-73
2022/09/26 07:20:16;;;;;;;3.13;1.98;;;;;;;;;;5051387;28;20050;-73
2022/09/26 07:22:43;;;;;;;4.47;1.75;;;;;;;;;;5043880;28;20057;-74
2022/09/26 07:25:11;;;;;;;6.90;2.35;;;;;;;;;;5052276;28;20739;-74
2022/09/26 07:27:39;;;;;;;15.45;2.47;;;;;;;;;;5056602;28;20936;-73
2022/09/26 07:30:08;;;;;;;6.80;2.45;;;;;;;;;;5051718;28;20108;-73
2022/09/26 07:32:35;;;;;;;3.65;2.40;;;;;;;;;;5040491;28;20060;-74
2022/09/26 07:35:03;;;;;;;6.55;2.15;;;;;;;;;;5052756;28;20049;-73
2022/09/26 07:37:31;;;;;;;8.27;2.00;;;;;;;;;;5050318;28;20053;-73
2022/09/26 07:39:58;;;;;;;3.50;1.95;;;;;;;;;;5056854;28;20132;-74
2022/09/26 07:42:28;;;;;;;5.15;2.05;;;;;;;;;;5040340;28;20061;-74
2022/09/26 07:44:55;;;;;;;3.72;1.90;;;;;;;;;;5057227;28;20045;-74
2022/09/26 07:50:28;;;;;;;5.07;1.90;;;;;;;;;;5060734;28;20818;-73
2022/09/26 07:52:55;;;;;;;8.63;2.72;;;;;;;;;;5049330;28;20050;-73
2022/09/26 07:55:25;;;;;;;4.25;2.05;;;;;;;;;;5047407;28;20049;-73
2022/09/26 07:57:52;;;;;;;12.90;2.45;;;;;;;;;;5053005;28;20932;-73
2022/09/26 08:00:20;;;;;;;8.60;2.28;;;;;;;;;;5058609;28;20850;-74
2022/09/26 08:02:47;;;;;;;6.72;2.53;;;;;;;;;;5044935;28;20049;-74
2022/09/26 08:05:18;;;;;;;13.00;2.20;;;;;;;;;;5049401;28;20046;-74
2022/09/26 08:07:46;;;;;;;4.35;2.00;;;;;;;;;;5049736;28;20106;-74
2022/09/26 08:10:20;;;;;;;3.83;1.83;;;;;;;;;;5059627;28;20053;-74
2022/09/26 08:12:48;;;;;;;3.90;2.17;;;;;;;;;;5048979;28;20058;-73
2022/09/26 08:15:16;;;;;;;5.55;2.15;;;;;;;;;;5050629;28;20041;-74
2022/09/26 08:17:43;;;;;;;5.28;2.00;;;;;;;;;;5050612;28;20053;-73
2022/09/26 08:20:11;;;;;;;5.55;2.45;;;;;;;;;;5059451;28;20058;-74
2022/09/26 08:22:38;;;;;;;3.75;1.92;;;;;;;;;;5051914;28;20049;-73
2022/09/26 08:25:06;;;;;;;4.50;1.90;;;;;;;;;;5044074;28;20053;-74
2022/09/26 08:27:33;;;;;;;4.82;1.95;;;;;;;;;;5048206;28;20065;-73
2022/09/26 08:30:01;;;;;;;6.18;2.58;;;;;;;;;;5053922;28;20041;-74
2022/09/26 08:32:31;;;;;;;3.88;1.67;;;;;;;;;;5048413;28;20054;-74
2022/09/26 08:34:58;;;;;;;8.20;2.15;;;;;;;;;;5055454;28;20045;-73
2022/09/26 08:37:26;;;;;;;4.80;1.70;;;;;;;;;;5053971;28;20128;-73
2022/09/26 08:39:54;;;;;;;4.35;1.85;;;;;;;;;;5050248;28;20818;-74
2022/09/26 08:42:28;;;;;;;7.90;2.17;;;;;;;;;;5052354;28;20148;-73
2022/09/26 08:48:04;;;;;;;8.30;1.90;;;;;;;;;;5047382;28;20054;-74
2022/09/26 08:50:32;;;;;;;5.55;2.15;;;;;;;;;;5048066;28;20049;-74
2022/09/26 08:53:05;;;;;;;5.40;1.98;;;;;;;;;;5045862;28;20057;-75
2022/09/26 08:55:36;;;;;;;8.10;2.35;;;;;;;;;;5052244;28;20064;-74
2022/09/26 08:58:05;;;;;;;10.15;1.98;;;;;;;;;;5046495;28;20049;-73
2022/09/26 09:00:37;;;;;;;4.47;2.15;;;;;;;;;;5059611;28;20053;-74
2022/09/26 09:03:10;;;;;;;3.47;2.10;;;;;;;;;;5052443;28;20069;-76
2022/09/26 09:05:38;;;;;;;;;;;;;;;;;;5069740;28;20050;-73
2022/09/26 09:08:11;;;;;;;5.57;2.20;;;;;;;;;;5055087;28;43761;-76
2022/09/26 09:10:46;;;;;;;4.18;1.90;;;;;;;;;;5057424;28;20045;-76
2022/09/26 09:13:20;;;;;;;5.28;2.38;;;;;;;;;;5058569;28;20104;-75
2022/09/26 09:16:10;;;;;;;9.50;2.15;;;;;;;;;;5061704;28;20144;-76
2022/09/26 09:18:57;;;;;;;7.68;1.60;;;;;;;;;;5058469;28;20053;-76
2022/09/26 09:21:43;;;;;;;8.90;2.10;;;;;;;;;;5057197;28;20111;-76
2022/09/26 09:24:30;;;;;;;6.03;2.15;;;;;;;;;;5059976;28;20045;-78
2022/09/26 09:27:10;;;;;;;8.50;2.47;;;;;;;;;;5065779;28;20804;-76
2022/09/26 09:30:10;;;;;;;5.85;2.00;;;;;;;;;;5062227;28;20080;-76
2022/09/26 09:33:01;;;;;;;7.43;2.70;;;;;;;;;;5062481;28;20041;-76
2022/09/26 09:35:34;;;;;;;5.78;1.85;;;;;;;;;;5057232;28;20055;-77
2022/09/26 09:38:02;;;;;;;;;;;;;;;;;;5057568;28;20849;-76
2022/09/26 09:40:33;;;;;;;7.38;2.58;;;;;;;;;;5055461;28;43588;-76
2022/09/26 09:43:12;;;;;;;5.50;2.75;;;;;;;;;;5059847;28;20053;-76
2022/09/26 09:45:50;;;;;;;11.02;2.53;;;;;;;;;;5059297;28;21012;-76
2022/09/26 09:48:17;;;;;;;11.40;2.85;;;;;;;;;;5061896;28;20565;-76
2022/09/26 09:50:51;;;;;;;4.15;2.20;;;;;;;;;;5071527;28;20109;-77
2022/09/26 09:53:28;;;;;;;10.82;3.30;;;;;;;;;;5060083;28;20058;-77
2022/09/26 09:56:01;;;;;;;5.82;2.50;;;;;;;;;;5066288;28;20129;-75
2022/09/26 09:58:31;;;;;;;8.55;2.67;;;;;;;;;;5069261;28;20049;-75
2022/09/26 10:01:14;;;;;;;7.45;2.42;;;;;;;;;;5060312;28;20100;-76
2022/09/26 10:03:44;;;;;;;8.05;2.45;;;;;;;;;;5059139;28;20140;-76
2022/09/26 10:06:12;;;;;;;6.95;2.20;;;;;;;;;;5055904;28;20045;-74
2022/09/26 10:09:04;;;;;;;5.82;2.30;;;;;;;;;;5056645;28;20065;-75
2022/09/26 10:11:51;;;;;;;6.50;1.88;;;;;;;;;;5058838;28;20057;-74
2022/09/26 10:14:27;;;;;;;9.30;2.25;;;;;;;;;;5063194;28;20029;-74
2022/09/26 10:17:09;;;;;;;10.20;2.50;;;;;;;;;;5059785;28;20049;-74
2022/09/26 10:19:42;;;;;;;7.57;1.98;;;;;;;;;;5057140;28;20050;-75
2022/09/26 10:22:14;;;;;;;7.72;2.38;;;;;;;;;;5060673;28;20050;-75
2022/09/26 10:24:41;;;;;;;9.82;2.53;;;;;;;;;;5047582;28;20046;-75
2022/09/26 10:27:15;;;;;;;3.97;2.03;;;;;;;;;;5060098;28;20877;-74
2022/09/26 10:29:43;;;;;;;10.82;2.63;;;;;;;;;;5067559;28;20099;-75
2022/09/26 10:32:11;;;;;;;5.85;2.38;;;;;;;;;;5059256;28;20053;-75
2022/09/26 10:34:39;;;;;;;7.53;2.80;;;;;;;;;;5049504;28;20119;-74
2022/09/26 10:37:28;;;;;;;5.72;2.67;;;;;;;;;;5043220;28;20838;-74
2022/09/26 10:42:45;;;;;;;8.77;2.90;;;;;;;;;;5052721;28;20905;-75
2022/09/26 10:45:19;;;;;;;3.85;2.38;;;;;;;;;;5055332;28;20922;-75
2022/09/26 10:47:50;;;;;;;8.57;2.90;;;;;;;;;;5088244;28;20057;-75
2022/09/26 10:50:22;;;;;;;5.60;2.25;;;;;;;;;;5055751;28;20438;-75
2022/09/26 10:52:52;;;;;;;6.85;2.63;;;;;;;;;;5053424;28;20045;-76
2022/09/26 10:55:24;;;;;;;4.45;2.65;;;;;;;;;;5053717;28;20030;-76
2022/09/26 10:57:57;;;;;;;5.80;2.45;;;;;;;;;;5054552;28;20115;-76
2022/09/26 11:00:36;;;;;;;3.80;2.20;;;;;;;;;;5051260;28;20077;-75
2022/09/26 11:03:04;;;;;;;5.50;2.60;;;;;;;;;;5049497;28;21411;-75
2022/09/26 11:08:20;;;;;;;11.40;2.85;;;;;;;;;;5049890;28;20088;-76
2022/09/26 11:10:48;;;;;;;5.50;2.65;;;;;;;;;;5057538;28;20941;-77
2022/09/26 11:13:20;;;;;;;6.03;2.40;;;;;;;;;;5056377;28;20049;-76
2022/09/26 11:16:02;;;;;;;4.35;2.22;;;;;;;;;;5058083;28;20087;-76
2022/09/26 11:18:33;;;;;;;4.78;2.40;;;;;;;;;;5055955;28;20045;-78
2022/09/26 11:21:16;;;;;;;4.63;2.35;;;;;;;;;;5061625;28;20144;-77
2022/09/26 11:24:10;;;;;;;4.53;2.67;;;;;;;;;;5051970;28;20057;-76
2022/09/26 11:26:56;;;;;;;6.72;2.70;;;;;;;;;;5047202;28;20049;-76
2022/09/26 11:29:40;;;;;;;7.75;2.55;;;;;;;;;;5046407;28;20061;-77
2022/09/26 11:32:13;;;;;;;10.68;2.60;;;;;;;;;;5053358;28;20127;-76
2022/09/26 11:34:40;;;;;;;5.25;2.58;;;;;;;;;;5053758;28;20858;-77
2022/09/26 11:37:13;;;;;;;6.50;2.80;;;;;;;;;;5056313;28;20107;-76
2022/09/26 11:39:59;;;;;;;4.38;2.25;;;;;;;;;;5055755;28;20058;-77
2022/09/26 11:42:45;;;;;;;4.97;2.22;;;;;;;;;;5053590;28;20981;-76
2022/09/26 11:45:22;;;;;;;2.70;1.85;;;;;;;;;;5047247;28;20038;-77
2022/09/26 11:48:06;;;;;;;3.70;2.05;;;;;;;;;;5052831;28;20049;-77
2022/09/26 11:50:46;;;;;;;2.88;1.95;;;;;;;;;;5052733;28;20104;-77
2022/09/26 11:53:17;;;;;;;4.78;2.30;;;;;;;;;;5051352;28;20053;-76
2022/09/26 11:55:52;;;;;;;3.75;2.20;;;;;;;;;;5060373;28;20041;-78
2022/09/26 11:58:33;;;;;;;2.80;2.08;;;;;;;;;;5055406;28;20041;-76
2022/09/26 12:01:15;;;;;;;4.93;1.95;;;;;;;;;;5060143;28;20053;-75
2022/09/26 12:03:44;;;;;;;3.58;2.17;;;;;;;;;;5055752;28;20049;-77
2022/09/26 12:06:12;;;;;;;2.80;2.25;;;;;;;;;;5063701;28;20037;-77
2022/09/26 12:08:39;;;;;;;3.05;2.15;;;;;;;;;;5062352;28;20033;-76
2022/09/26 12:11:06;;;;;;;2.08;1.73;;;;;;;;;;5053072;28;20534;-75
2022/09/26 12:13:41;;;;;;;3.40;2.15;;;;;;;;;;5053397;28;20041;-77
2022/09/26 12:16:20;;;;;;;4.53;1.95;;;;;;;;;;5055760;28;20109;-77
2022/09/26 12:18:58;;;;;;;6.80;2.45;;;;;;;;;;5052997;28;20088;-76
2022/09/26 12:21:37;;;;;;;5.20;2.50;;;;;;;;;;5046223;28;20053;-77
2022/09/26 12:24:05;;;;;;;3.80;2.60;;;;;;;;;;5048145;28;20136;-77
2022/09/26 12:26:41;;;;;;;4.43;2.40;;;;;;;;;;5046606;28;20053;-76
2022/09/26 12:29:20;;;;;;;6.97;3.25;;;;;;;;;;5051852;28;20891;-76
2022/09/26 12:31:59;;;;;;;6.20;2.58;;;;;;;;;;5047607;28;20045;-77
2022/09/26 12:34:36;;;;;;;4.93;2.75;;;;;;;;;;5053192;28;20061;-76
2022/09/26 12:37:03;;;;;;;3.13;2.30;;;;;;;;;;5049471;28;20050;-78
2022/09/26 12:39:34;;;;;;;7.65;2.50;;;;;;;;;;5053573;28;20045;-76
2022/09/26 12:42:23;;;;;;;5.13;2.67;;;;;;;;;;5054804;28;20053;-77
2022/09/26 12:45:09;;;;;;;4.65;2.40;;;;;;;;;;5061915;28;20069;-76
2022/09/26 12:47:48;;;;;;;3.45;2.40;;;;;;;;;;5051820;28;20092;-76
2022/09/26 12:50:16;;;;;;;4.00;2.45;;;;;;;;;;5053840;28;20054;-78
2022/09/26 12:52:46;;;;;;;4.15;2.40;;;;;;;;;;5043004;28;20079;-77
2022/09/26 12:55:23;;;;;;;3.90;2.42;;;;;;;;;;5051747;28;20077;-77
2022/09/26 12:58:00;;;;;;;3.90;2.38;;;;;;;;;;5044652;28;20132;-77
2022/09/26 13:00:35;;;;;;;3.00;2.05;;;;;;;;;;5044675;28;20046;-77
2022/09/26 13:03:08;;;;;;;4.45;2.63;;;;;;;;;;5049638;28;20287;-76
2022/09/26 13:05:41;;;;;;;3.03;1.95;;;;;;;;;;5044549;28;20535;-77
2022/09/26 13:08:11;;;;;;;1.95;1.75;;;;;;;;;;5051127;28;20166;-79
2022/09/26 13:10:51;;;;;;;2.47;1.83;;;;;;;;;;5055830;28;20142;-76
2022/09/26 13:13:29;;;;;;;1.98;1.42;;;;;;;;;;5054024;28;20053;-78
2022/09/26 13:15:58;;;;;;;2.22;1.70;;;;;;;;;;5055853;28;20050;-77
2022/09/26 13:18:36;;;;;;;2.50;1.77;;;;;;;;;;5054812;28;20045;-78
2022/09/26 13:21:10;;;;;;;4.85;1.80;;;;;;;;;;5054318;28;20053;-77
2022/09/26 13:23:38;;;;;;;2.00;1.55;;;;;;;;;;5055971;28;20055;-78
2022/09/26 13:26:09;;;;;;;3.20;1.30;;;;;;;;;;5059486;28;20058;-78
2022/09/26 13:28:45;;;;;;;2.00;1.65;;;;;;;;;;5064053;28;20057;-78
2022/09/26 13:31:40;;;;;;;1.88;1.70;;;;;;;;;;5066284;28;20040;-78
2022/09/26 13:34:16;;;;;;;1.67;1.40;;;;;;;;;;5065775;28;20037;-77
2022/09/26 13:36:44;;;;;;;2.20;1.60;;;;;;;;;;5066855;28;20054;-78
2022/09/26 13:39:14;;;;;;;1.70;1.40;;;;;;;;;;5068652;28;20049;-80
2022/09/26 13:41:46;;;;;;;2.70;1.80;;;;;;;;;;5067721;28;20037;-77
2022/09/26 13:44:34;;;;;;;3.65;1.58;;;;;;;;;;5071450;28;20022;-78
2022/09/26 13:47:02;;;;;;;1.92;1.70;;;;;;;;;;5038262;28;20048;-77
2022/09/26 13:49:32;;;;;;;4.18;2.03;;;;;;;;;;5072443;28;20038;-77
2022/09/26 13:52:17;;;;;;;3.47;2.42;;;;;;;;;;5103400;28;20045;-79
2022/09/26 13:54:45;;;;;;;3.25;2.55;;;;;;;;;;5077451;28;20044;-79
2022/09/26 13:57:31;;;;;;;4.43;2.15;;;;;;;;;;5091771;28;20048;-78
2022/09/26 13:59:58;;;;;;;5.57;2.28;;;;;;;;;;5072235;28;20053;-79
2022/09/26 14:02:28;;;;;;;4.55;2.17;;;;;;;;;;5077383;28;20037;-79
2022/09/26 14:05:01;;;;;;;3.58;2.22;;;;;;;;;;5066915;28;20076;-77
2022/09/26 14:10:28;;;;;;;4.88;2.80;;;;;;;;;;5071421;28;20049;-78
2022/09/26 14:13:03;;;;;;;3.20;2.55;;;;;;;;;;5075922;28;20026;-78
2022/09/26 14:15:48;;;;;;;3.65;2.53;;;;;;;;;;5075743;28;20041;-78
2022/09/26 14:18:33;;;;;;;3.72;2.33;;;;;;;;;;5053697;28;20063;-78
2022/09/26 14:21:11;;;;;;;2.97;2.20;;;;;;;;;;5054597;28;20057;-80
2022/09/26 14:23:43;;;;;;;4.65;2.20;;;;;;;;;;5050831;28;20045;-78
2022/09/26 14:26:11;;;;;;;5.55;2.40;;;;;;;;;;5050873;28;20078;-78
2022/09/26 14:28:45;;;;;;;2.78;2.20;;;;;;;;;;5059712;28;20144;-78
2022/09/26 14:31:24;;;;;;;2.63;1.83;;;;;;;;;;5054836;28;20053;-78
2022/09/26 14:34:10;;;;;;;2.00;1.83;;;;;;;;;;5051219;28;20058;-78
2022/09/26 14:36:38;;;;;;;7.75;2.30;;;;;;;;;;5045283;28;20103;-79
2022/09/26 14:39:05;;;;;;;4.45;1.85;;;;;;;;;;5047307;28;20111;-78
2022/09/26 14:41:34;;;;;;;3.83;2.35;;;;;;;;;;5055929;28;20045;-77
2022/09/26 14:44:03;;;;;;;5.53;2.08;;;;;;;;;;5054290;28;20045;-77
2022/09/26 14:46:32;;;;;;;5.97;2.30;;;;;;;;;;5050009;28;20050;-78
2022/09/26 14:49:04;;;;;;;2.10;1.90;;;;;;;;;;5056833;28;20084;-77
2022/09/26 14:51:40;;;;;;;3.92;2.60;;;;;;;;;;5052547;28;20041;-77
2022/09/26 14:54:20;;;;;;;2.63;2.10;;;;;;;;;;5041887;28;20139;-76
2022/09/26 14:56:48;;;;;;;4.03;2.70;;;;;;;;;;5049745;28;20053;-78
2022/09/26 14:59:15;;;;;;;3.22;2.30;;;;;;;;;;5051759;28;20057;-78
2022/09/26 15:01:44;;;;;;;3.53;2.30;;;;;;;;;;5043338;28;20104;-79
2022/09/26 15:04:24;;;;;;;3.42;2.50;;;;;;;;;;5048293;28;20527;-79
2022/09/26 15:06:53;;;;;;;3.92;2.53;;;;;;;;;;5055596;28;20045;-78
2022/09/26 15:09:23;;;;;;;3.03;2.38;;;;;;;;;;5054460;28;20053;-78
2022/09/26 15:12:01;;;;;;;3.13;2.40;;;;;;;;;;5053129;28;20136;-79
2022/09/26 15:14:38;;;;;;;3.15;2.35;;;;;;;;;;5054149;28;20089;-79
2022/09/26 15:17:06;;;;;;;8.93;2.40;;;;;;;;;;5060954;28;20054;-80
2022/09/26 15:19:39;;;;;;;4.97;3.08;;;;;;;;;;5058566;28;20107;-79
2022/09/26 15:22:12;;;;;;;4.45;3.00;;;;;;;;;;5055071;28;20107;-79
2022/09/26 15:24:39;;;;;;;6.10;3.00;;;;;;;;;;5057134;28;20053;-79
2022/09/26 15:27:09;;;;;;;6.63;3.10;;;;;;;;;;5051461;28;20107;-79